Dades meteomassalio
Diari Summary for Abril 15, 2017 Units:  English    Metric   Both
« Previous Day
Next Day »
Diari Semanal Mensual Anual Personalitzat
  Maxima: Minima: Mijana:
Temperatura: TemperatureC °F 11.4 °F 16.5 °F
Rosada: DewpointC °F 5.5 °F 7.4 °F
Humitat: Humidity % 44 % 55 %
Velocitat del vent: WindSpeedKMH mph 0.0 mph 15.5 mph
Racha vent: WindSpeedGustKMH mph - -
Vent:- - WNW
Pressio: PressurehPa in 1015.8 in -
Pluja: 0.0 in    
Historical Graphs
 
 
Tabular Data for Abril 15, 2017
Time Temperature Dew Point Pressure Wind Wind Speed Wind Gust Humidity Rainfall Rate (Hourly) solar Conditions
TemperatureC °F DewpointC °F PressurehPa in Calm     Humidity % HourlyPrecipMM in SolarRadiationWatts/m^2 W/m2 Conditions
00:03 18.3 °F 5.8 °F 1015.8 in West 5.6 mph 5.6 mph 44 % 0.0 in 0.0 W/m2 CLR
00:08 18.5 °F 6.0 °F 1015.8 in Calm     44 % 0.0 in 0.0 W/m2 CLR
00:13 18.3 °F 6.2 °F 1015.8 in Calm     45 % 0.0 in 0.0 W/m2 CLR
00:18 17.9 °F 6.1 °F 1015.8 in Calm     46 % 0.0 in 0.0 W/m2 CLR
00:23 17.7 °F 6.2 °F 1016.1 in Calm     47 % 0.0 in 0.0 W/m2 CLR
00:33 18.1 °F 5.7 °F 1016.1 in West 6.4 mph 6.4 mph 44 % 0.0 in 0.0 W/m2 CLR
00:38 18.6 °F 6.1 °F 1016.1 in Calm     44 % 0.0 in 0.0 W/m2 CLR
00:43 18.2 °F 6.4 °F 1016.1 in Calm     46 % 0.0 in 0.0 W/m2 CLR
00:48 17.7 °F 5.9 °F 1016.1 in Calm     46 % 0.0 in 0.0 W/m2 CLR
00:53 17.3 °F 6.2 °F 1016.5 in Calm     48 % 0.0 in 0.0 W/m2 CLR
00:58 16.9 °F 6.2 °F 1016.5 in Calm     49 % 0.0 in 0.0 W/m2 CLR
01:03 16.4 °F 6.0 °F 1016.5 in Calm     50 % 0.0 in 0.0 W/m2 CLR
01:08 16.1 °F 5.9 °F 1016.5 in NNW 12.9 mph 12.9 mph 51 % 0.0 in 0.0 W/m2 CLR
01:13 16.9 °F 5.8 °F 1016.8 in NW 6.4 mph 6.4 mph 48 % 0.0 in 0.0 W/m2 CLR
01:18 17.3 °F 5.8 °F 1016.8 in NW 7.4 mph 7.4 mph 47 % 0.0 in 0.0 W/m2 CLR
01:23 17.3 °F 6.2 °F 1016.8 in NW 9.3 mph 9.3 mph 48 % 0.0 in 0.0 W/m2 CLR
01:28 17.2 °F 6.3 °F 1016.8 in NW 9.7 mph 9.7 mph 49 % 0.0 in 0.0 W/m2 CLR
01:33 17.1 °F 6.3 °F 1016.8 in WNW 7.4 mph 7.4 mph 49 % 0.0 in 0.0 W/m2 CLR
01:38 17.1 °F 6.3 °F 1016.8 in WNW 7.4 mph 7.4 mph 49 % 0.0 in 0.0 W/m2 CLR
01:43 17.0 °F 6.5 °F 1016.8 in NW 5.6 mph 5.6 mph 50 % 0.0 in 0.0 W/m2 CLR
01:48 16.9 °F 6.4 °F 1016.8 in WNW 5.6 mph 5.6 mph 50 % 0.0 in 0.0 W/m2 CLR
01:53 16.8 °F 6.3 °F 1016.8 in Calm     50 % 0.0 in 0.0 W/m2 CLR
01:58 16.4 °F 6.2 °F 1016.8 in Calm     51 % 0.0 in 0.0 W/m2 CLR
02:03 16.0 °F 6.2 °F 1016.8 in Calm     52 % 0.0 in 0.0 W/m2 CLR
02:08 15.7 °F 6.1 °F 1016.8 in Calm     53 % 0.0 in 0.0 W/m2 CLR
02:13 15.4 °F 5.8 °F 1017.2 in Calm     53 % 0.0 in 0.0 W/m2 CLR
02:18 15.1 °F 5.8 °F 1017.2 in Calm     54 % 0.0 in 0.0 W/m2 CLR
02:23 14.8 °F 6.1 °F 1017.2 in WSW 1.6 mph 1.6 mph 56 % 0.0 in 0.0 W/m2 CLR
02:28 14.6 °F 5.9 °F 1017.2 in Calm     56 % 0.0 in 0.0 W/m2 CLR
02:33 14.3 °F 5.9 °F 1017.2 in Calm     57 % 0.0 in 0.0 W/m2 CLR
02:38 14.1 °F 5.9 °F 1017.2 in SW 7.4 mph   58 % 0.0 in 0.0 W/m2 CLR
02:43 14.0 °F 5.8 °F 1017.2 in Calm     58 % 0.0 in 0.0 W/m2 CLR
02:48 13.9 °F 5.5 °F 1017.5 in Calm     57 % 0.0 in 0.0 W/m2 CLR
02:53 13.9 °F 5.6 °F 1017.2 in West 5.6 mph 5.6 mph 57 % 0.0 in 0.0 W/m2 CLR
02:58 14.6 °F 5.7 °F 1017.2 in West 5.6 mph 5.6 mph 55 % 0.0 in 0.0 W/m2 CLR
03:03 15.2 °F 5.7 °F 1017.2 in West 6.4 mph 6.4 mph 53 % 0.0 in 0.0 W/m2 CLR
03:08 15.3 °F 5.8 °F 1017.5 in West 13.0 mph 13.0 mph 53 % 0.0 in 0.0 W/m2 CLR
03:13 15.6 °F 6.0 °F 1017.5 in WNW 5.6 mph 5.6 mph 53 % 0.0 in 0.0 W/m2 CLR
03:18 15.4 °F 5.9 °F 1017.2 in SW 7.4 mph 7.4 mph 53 % 0.0 in 0.0 W/m2 CLR
03:23 15.2 °F 5.9 °F 1017.5 in SSW 4.8 mph 4.8 mph 54 % 0.0 in 0.0 W/m2 CLR
03:28 14.8 °F 5.9 °F 1017.5 in Calm     55 % 0.0 in 0.0 W/m2 CLR
03:33 14.7 °F 6.2 °F 1017.8 in West 5.6 mph   57 % 0.0 in 0.0 W/m2 CLR
03:38 14.7 °F 6.6 °F 1017.5 in West 5.6 mph   58 % 0.0 in 0.0 W/m2 CLR
03:43 14.7 °F 6.6 °F 1017.5 in West 5.6 mph 5.6 mph 58 % 0.0 in 0.0 W/m2 CLR
03:48 14.7 °F 6.6 °F 1017.8 in Calm     58 % 0.0 in 0.0 W/m2 CLR
03:58 14.8 °F 6.8 °F 1017.8 in West 18.5 mph 18.5 mph 59 % 0.0 in 0.0 W/m2 CLR
04:03 14.7 °F 6.8 °F 1017.8 in West 11.1 mph 11.1 mph 59 % 0.0 in 0.0 W/m2 CLR
04:08 14.7 °F 6.7 °F 1018.2 in West 3.7 mph 3.7 mph 59 % 0.0 in 0.0 W/m2 CLR
04:13 14.6 °F 6.9 °F 1017.8 in Calm     60 % 0.0 in 0.0 W/m2 CLR
04:18 14.4 °F 6.9 °F 1017.8 in West 7.4 mph 7.4 mph 61 % 0.0 in 0.0 W/m2 CLR
04:23 14.3 °F 6.8 °F 1017.8 in WNW 14.8 mph 14.8 mph 61 % 0.0 in 0.0 W/m2 CLR
04:28 14.2 °F 7.0 °F 1018.2 in West 13.0 mph 13.0 mph 62 % 0.0 in 0.0 W/m2 CLR
04:33 14.1 °F 6.9 °F 1018.2 in WNW 6.4 mph 6.4 mph 62 % 0.0 in 0.0 W/m2 CLR
04:38 14.0 °F 6.8 °F 1018.2 in WNW 4.8 mph 4.8 mph 62 % 0.0 in 0.0 W/m2 CLR
04:39 14.0 °F 6.8 °F 1018.2 in WNW 4.8 mph 4.8 mph 62 % 0.0 in 0.0 W/m2 CLR
04:44 13.9 °F 6.9 °F 1018.2 in West 9.3 mph 9.3 mph 63 % 0.0 in 0.0 W/m2 CLR
04:49 13.8 °F 6.9 °F 1018.2 in West 5.6 mph 5.6 mph 63 % 0.0 in 0.0 W/m2 CLR
04:54 13.7 °F 6.8 °F 1018.2 in West 8.0 mph 8.0 mph 63 % 0.0 in 0.0 W/m2 CLR
04:59 13.7 °F 6.7 °F 1018.2 in West 11.1 mph 11.1 mph 63 % 0.0 in 0.0 W/m2 CLR
05:04 13.6 °F 6.9 °F 1018.2 in WSW 7.4 mph 7.4 mph 64 % 0.0 in 0.0 W/m2 CLR
05:09 13.4 °F 6.8 °F 1018.2 in West 3.2 mph 3.2 mph 64 % 0.0 in 0.0 W/m2 CLR
05:14 13.4 °F 6.7 °F 1018.2 in West 9.3 mph 9.3 mph 64 % 0.0 in 0.0 W/m2 CLR
05:19 13.3 °F 6.7 °F 1018.2 in West 8.0 mph 8.0 mph 64 % 0.0 in 0.0 W/m2 CLR
05:24 13.3 °F 6.6 °F 1018.2 in West 6.4 mph 6.4 mph 64 % 0.0 in 0.0 W/m2 CLR
05:29 13.2 °F 6.7 °F 1018.2 in Calm     65 % 0.0 in 0.0 W/m2 CLR
05:34 13.1 °F 6.6 °F 1018.5 in West 9.3 mph 9.3 mph 65 % 0.0 in 0.0 W/m2 CLR
05:39 13.1 °F 6.6 °F 1018.5 in West 7.4 mph 7.4 mph 65 % 0.0 in 0.0 W/m2 CLR
05:44 12.9 °F 6.5 °F 1018.5 in West 7.4 mph 7.4 mph 65 % 0.0 in 0.0 W/m2 CLR
05:49 12.8 °F 6.6 °F 1018.5 in West 5.6 mph 5.6 mph 66 % 0.0 in 0.0 W/m2 CLR
05:54 12.7 °F 6.7 °F 1018.5 in Calm     67 % 0.0 in 0.0 W/m2 CLR
05:59 12.6 °F 6.6 °F 1018.5 in Calm     67 % 0.0 in 0.0 W/m2 CLR
06:04 12.5 °F 6.8 °F 1018.5 in Calm     68 % 0.0 in 0.0 W/m2 CLR
06:09 12.4 °F 6.7 °F 1018.5 in Calm     68 % 0.0 in 0.0 W/m2 CLR
06:14 12.2 °F 6.5 °F 1018.5 in Calm     68 % 0.0 in 0.0 W/m2 CLR
06:19 12.2 °F 6.7 °F 1018.5 in Calm     69 % 0.0 in 0.0 W/m2 CLR
06:24 12.1 °F 6.6 °F 1018.5 in Calm     69 % 0.0 in 0.0 W/m2 CLR
06:29 12.0 °F 6.7 °F 1018.5 in Calm     70 % 0.0 in 0.0 W/m2 CLR
06:34 11.9 °F 6.6 °F 1018.5 in Calm     70 % 0.0 in 0.0 W/m2 CLR
06:39 11.8 °F 6.6 °F 1018.5 in Calm     70 % 0.0 in 0.0 W/m2 CLR
06:44 11.7 °F 6.6 °F 1018.5 in Calm     71 % 0.0 in 0.0 W/m2 CLR
06:49 11.7 °F 6.6 °F 1018.5 in WSW 5.6 mph 5.6 mph 71 % 0.0 in 0.0 W/m2 CLR
06:54 11.6 °F 6.5 °F 1018.5 in WSW 1.9 mph   71 % 0.0 in 0.0 W/m2 CLR
06:59 11.6 °F 6.5 °F 1018.8 in Calm     71 % 0.0 in 0.0 W/m2 CLR
07:04 11.5 °F 6.4 °F 1018.8 in Calm     71 % 0.0 in 0.0 W/m2 CLR
07:09 11.4 °F 6.6 °F 1018.8 in Calm     72 % 0.0 in 0.0 W/m2 CLR
07:14 11.4 °F 6.5 °F 1018.5 in WSW 5.6 mph 5.6 mph 72 % 0.0 in 0.0 W/m2 OVC
07:19 11.4 °F 6.5 °F 1018.8 in Calm     72 % 0.0 in 0.0 W/m2 OVC
07:24 11.4 °F 6.5 °F 1018.8 in Calm     72 % 0.0 in 0.0 W/m2 OVC
07:29 11.5 °F 6.6 °F 1018.8 in WNW 8.0 mph 8.0 mph 72 % 0.0 in 7.0 W/m2 BKN
07:34 11.8 °F 6.7 °F 1018.8 in West 9.3 mph 9.3 mph 71 % 0.0 in 12.0 W/m2 BKN
07:44 12.1 °F 6.8 °F 1019.2 in West 11.1 mph 11.1 mph 70 % 0.0 in 26.0 W/m2 BKN
07:49 12.2 °F 6.9 °F 1019.2 in West 8.0 mph 8.0 mph 70 % 0.0 in 35.0 W/m2 BKN
07:54 12.3 °F 7.0 °F 1019.2 in West 9.3 mph 9.3 mph 70 % 0.0 in 47.0 W/m2 SCT
07:59 12.3 °F 7.0 °F 1019.5 in WSW 5.6 mph 5.6 mph 70 % 0.0 in 58.0 W/m2 SCT
08:04 12.4 °F 7.1 °F 1019.5 in West 3.7 mph 3.7 mph 70 % 0.0 in 65.0 W/m2 SCT
08:09 12.4 °F 7.1 °F 1019.5 in West 14.8 mph 14.8 mph 70 % 0.0 in 70.0 W/m2 FEW
08:14 12.5 °F 6.9 °F 1019.5 in SW 7.4 mph 7.4 mph 69 % 0.0 in 83.0 W/m2 FEW
08:15 12.5 °F 6.9 °F 1019.5 in SW 6.4 mph 6.4 mph 69 % 0.0 in 84.0 W/m2 FEW
08:20 12.6 °F 7.0 °F 1019.5 in WSW 14.8 mph 14.8 mph 69 % 0.0 in 102.0 W/m2 CLR
08:25 12.6 °F 7.1 °F 1019.5 in WSW 11.3 mph 11.3 mph 69 % 0.0 in 98.0 W/m2 CLR
08:30 12.7 °F 7.2 °F 1019.9 in West 18.5 mph 18.5 mph 69 % 0.0 in 93.0 W/m2 CLR
08:35 12.8 °F 7.2 °F 1019.9 in West 8.0 mph 8.0 mph 69 % 0.0 in 130.0 W/m2 CLR
08:40 12.9 °F 7.3 °F 1019.9 in West 20.4 mph 20.4 mph 69 % 0.0 in 171.0 W/m2 CLR
08:45 13.0 °F 7.4 °F 1019.9 in West 9.7 mph 9.7 mph 69 % 0.0 in 183.0 W/m2 CLR
08:50 13.2 °F 7.4 °F 1019.9 in West 20.4 mph 20.4 mph 68 % 0.0 in 213.0 W/m2 CLR
08:55 13.2 °F 7.4 °F 1019.9 in WNW 25.9 mph 25.9 mph 68 % 0.0 in 229.0 W/m2 CLR
09:00 13.4 °F 7.4 °F 1019.9 in West 14.8 mph 14.8 mph 67 % 0.0 in 162.0 W/m2 CLR
09:05 13.5 °F 7.5 °F 1019.9 in WNW 17.7 mph 17.7 mph 67 % 0.0 in 192.0 W/m2 CLR
09:10 13.5 °F 7.5 °F 1019.9 in WNW 20.4 mph 20.4 mph 67 % 0.0 in 234.0 W/m2 CLR
09:15 13.5 °F 7.5 °F 1019.9 in WNW 16.1 mph 16.1 mph 67 % 0.0 in 248.0 W/m2 CLR
09:20 13.7 °F 7.7 °F 1019.9 in WNW 11.1 mph 11.1 mph 67 % 0.0 in 253.0 W/m2 CLR
09:26 13.9 °F 7.8 °F 1019.9 in WNW 29.6 mph 29.6 mph 67 % 0.0 in 350.0 W/m2 CLR
09:31 14.0 °F 7.7 °F 1019.9 in West 14.5 mph 15.6 mph 66 % 0.0 in 334.0 W/m2 CLR
09:36 13.9 °F 7.7 °F 1019.9 in NW 20.4 mph 20.4 mph 66 % 0.0 in 251.0 W/m2 CLR
09:41 14.0 °F 7.7 °F 1020.2 in WNW 16.1 mph 16.1 mph 66 % 0.0 in 297.0 W/m2 CLR
09:46 14.0 °F 7.7 °F 1020.2 in West 24.1 mph 24.1 mph 66 % 0.0 in 274.0 W/m2 CLR
09:51 14.1 °F 7.8 °F 1020.2 in WNW 18.5 mph 18.5 mph 66 % 0.0 in 236.0 W/m2 CLR
09:56 14.1 °F 7.8 °F 1020.2 in WNW 24.1 mph 24.1 mph 66 % 0.0 in 288.0 W/m2 CLR
10:01 14.2 °F 7.9 °F 1020.2 in WNW 27.8 mph 27.8 mph 66 % 0.0 in 332.0 W/m2 CLR
10:06 14.3 °F 8.1 °F 1020.2 in NW 20.4 mph 20.4 mph 66 % 0.0 in 378.0 W/m2 CLR
10:11 14.6 °F 8.1 °F 1020.2 in WNW 18.5 mph 18.5 mph 65 % 0.0 in 404.0 W/m2 CLR
10:16 14.7 °F 8.2 °F 1020.2 in WNW 18.5 mph 18.5 mph 65 % 0.0 in 313.0 W/m2 CLR
10:21 14.7 °F 7.9 °F 1020.2 in WNW 19.3 mph 19.3 mph 64 % 0.0 in 253.0 W/m2 CLR
10:26 14.5 °F 8.0 °F 1019.9 in WNW 22.2 mph 22.2 mph 65 % 0.0 in 311.0 W/m2 CLR
10:31 14.6 °F 8.1 °F 1019.9 in West 20.4 mph 20.4 mph 65 % 0.0 in 285.0 W/m2 CLR
10:36 14.7 °F 8.2 °F 1020.2 in West 25.9 mph 25.9 mph 65 % 0.0 in 285.0 W/m2 CLR
10:41 14.6 °F 8.1 °F 1020.2 in NW 18.5 mph 18.5 mph 65 % 0.0 in 404.0 W/m2 CLR
10:46 14.8 °F 8.1 °F 1020.2 in West 14.8 mph 14.8 mph 64 % 0.0 in 283.0 W/m2 CLR
10:51 14.9 °F 8.1 °F 1020.2 in WNW 22.2 mph 22.2 mph 64 % 0.0 in 362.0 W/m2 CLR
10:56 15.0 °F 8.2 °F 1020.2 in West 16.7 mph 16.7 mph 64 % 0.0 in 415.0 W/m2 CLR
11:01 15.2 °F 8.4 °F 1020.2 in WNW 3.7 mph 3.7 mph 64 % 0.0 in 288.0 W/m2 CLR
11:06 15.3 °F 8.3 °F 1019.9 in West 19.3 mph 19.3 mph 63 % 0.0 in 285.0 W/m2 CLR
11:11 15.2 °F 8.2 °F 1020.2 in West 16.7 mph 16.7 mph 63 % 0.0 in 257.0 W/m2 CLR
11:16 15.4 °F 8.4 °F 1019.9 in WNW 16.7 mph 16.7 mph 63 % 0.0 in 380.0 W/m2 CLR
11:21 15.6 °F 8.3 °F 1020.2 in West 27.8 mph 27.8 mph 62 % 0.0 in 512.0 W/m2 CLR
11:26 15.8 °F 8.3 °F 1020.2 in NW 18.5 mph 18.5 mph 61 % 0.0 in 413.0 W/m2 CLR
11:31 15.8 °F 8.5 °F 1019.9 in West 18.5 mph 18.5 mph 62 % 0.0 in 473.0 W/m2 CLR
11:36 15.9 °F 8.6 °F 1019.9 in WNW 14.8 mph 14.8 mph 62 % 0.0 in 429.0 W/m2 CLR
11:41 16.3 °F 8.5 °F 1019.9 in WNW 18.5 mph 18.5 mph 60 % 0.0 in 471.0 W/m2 CLR
11:46 16.3 °F 8.8 °F 1019.9 in WNW 22.2 mph 22.2 mph 61 % 0.0 in 589.0 W/m2 CLR
11:51 16.5 °F 8.7 °F 1019.9 in NNW 18.5 mph 18.5 mph 60 % 0.0 in 403.0 W/m2 CLR
11:56 16.4 °F 8.3 °F 1019.9 in West 18.5 mph 18.5 mph 59 % 0.0 in 392.0 W/m2 CLR
12:01 16.4 °F 8.4 °F 1019.9 in West 18.5 mph 18.5 mph 59 % 0.0 in 367.0 W/m2 CLR
12:06 16.5 °F 8.4 °F 1019.9 in West 20.4 mph 20.4 mph 59 % 0.0 in 388.0 W/m2 CLR
12:11 16.4 °F 8.6 °F 1019.9 in NW 7.4 mph 7.4 mph 60 % 0.0 in 373.0 W/m2 CLR
12:16 16.6 °F 8.3 °F 1019.5 in NNW 14.8 mph 14.8 mph 58 % 0.0 in 348.0 W/m2 CLR
12:21 16.9 °F 8.6 °F 1019.5 in NW 7.4 mph 7.4 mph 58 % 0.0 in 360.0 W/m2 CLR
12:26 17.2 °F 8.6 °F 1019.9 in WNW 14.8 mph 14.8 mph 57 % 0.0 in 315.0 W/m2 CLR
12:31 17.3 °F 8.4 °F 1019.5 in NW 18.5 mph 18.5 mph 56 % 0.0 in 359.0 W/m2 CLR
12:36 17.2 °F 8.1 °F 1019.9 in West 27.8 mph 27.8 mph 55 % 0.0 in 383.0 W/m2 CLR
12:41 17.2 °F 8.4 °F 1019.9 in NW 17.7 mph 17.7 mph 56 % 0.0 in 436.0 W/m2 CLR
12:46 17.5 °F 8.3 °F 1019.9 in NW 20.4 mph 20.4 mph 55 % 0.0 in 457.0 W/m2 CLR
12:51 17.5 °F 8.1 °F 1019.9 in NW 19.3 mph 19.3 mph 54 % 0.0 in 554.0 W/m2 CLR
12:56 17.9 °F 8.7 °F 1019.5 in West 18.5 mph 18.5 mph 55 % 0.0 in 557.0 W/m2 CLR
12:57 17.9 °F 8.8 °F 1019.5 in NW 11.1 mph 11.1 mph 55 % 0.0 in 492.0 W/m2 CLR
13:02 18.2 °F 8.5 °F 1019.5 in WNW 18.5 mph 18.5 mph 53 % 0.0 in 446.0 W/m2 CLR
13:07 18.1 °F 8.4 °F 1019.5 in NW 18.5 mph 18.5 mph 53 % 0.0 in 557.0 W/m2 CLR
13:12 18.0 °F 8.6 °F 1019.5 in NW 16.7 mph 16.7 mph 54 % 0.0 in 469.0 W/m2 CLR
13:17 18.0 °F 8.6 °F 1019.5 in WNW 20.4 mph 20.4 mph 54 % 0.0 in 431.0 W/m2 CLR
13:22 18.0 °F 8.3 °F 1019.5 in NW 29.6 mph 29.6 mph 53 % 0.0 in 591.0 W/m2 CLR
13:27 18.1 °F 8.7 °F 1019.5 in WNW 18.5 mph 18.5 mph 54 % 0.0 in 512.0 W/m2 CLR
13:32 18.4 °F 8.9 °F 1019.5 in NW 24.1 mph 24.1 mph 54 % 0.0 in 752.0 W/m2 CLR
13:37 18.4 °F 8.6 °F 1019.5 in WNW 18.5 mph 18.5 mph 53 % 0.0 in 499.0 W/m2 CLR
13:42 18.5 °F 8.7 °F 1019.2 in West 18.5 mph 18.5 mph 53 % 0.0 in 468.0 W/m2 CLR
13:47 18.8 °F 9.0 °F 1019.2 in West 13.0 mph 13.0 mph 53 % 0.0 in 993.0 W/m2 CLR
13:52 19.3 °F 8.9 °F 1019.2 in WNW 14.8 mph 14.8 mph 51 % 0.0 in 921.0 W/m2 CLR
13:57 19.4 °F 9.1 °F 1019.2 in NW 14.8 mph 14.8 mph 51 % 0.0 in 891.0 W/m2 CLR
14:02 19.6 °F 8.8 °F 1018.8 in NW 22.2 mph 22.2 mph 50 % 0.0 in 881.0 W/m2 CLR
14:07 19.4 °F 9.0 °F 1018.8 in NNW 20.4 mph 20.4 mph 51 % 0.0 in 863.0 W/m2 CLR
14:12 19.7 °F 8.9 °F 1018.8 in NNW 20.4 mph 20.4 mph 50 % 0.0 in 870.0 W/m2 CLR
14:17 19.7 °F 8.7 °F 1018.8 in West 19.3 mph 19.3 mph 49 % 0.0 in 863.0 W/m2 CLR
14:22 19.9 °F 9.2 °F 1018.8 in NW 5.6 mph 5.6 mph 50 % 0.0 in 853.0 W/m2 CLR
14:27 20.1 °F 9.1 °F 1018.5 in NW 20.4 mph 20.4 mph 49 % 0.0 in 854.0 W/m2 CLR
14:32 20.6 °F 9.2 °F 1018.5 in NNW 18.5 mph 18.5 mph 48 % 0.0 in 849.0 W/m2 CLR
14:37 20.7 °F 8.9 °F 1018.5 in WNW 22.2 mph 22.2 mph 47 % 0.0 in 846.0 W/m2 CLR
14:42 20.8 °F 8.8 °F 1018.5 in WNW 22.2 mph 22.2 mph 46 % 0.0 in 846.0 W/m2 CLR
14:47 20.7 °F 9.0 °F 1018.5 in West 5.6 mph 5.6 mph 47 % 0.0 in 858.0 W/m2 CLR
14:52 21.1 °F 8.7 °F 1018.5 in NW 20.4 mph 20.4 mph 45 % 0.0 in 754.0 W/m2 CLR
14:57 21.2 °F 8.8 °F 1018.2 in NW 27.8 mph 27.8 mph 45 % 0.0 in 754.0 W/m2 CLR
15:02 21.2 °F 8.8 °F 1018.5 in WNW 19.3 mph 19.3 mph 45 % 0.0 in 304.0 W/m2 CLR
15:07 20.8 °F 8.8 °F 1018.2 in NW 24.1 mph 24.1 mph 46 % 0.0 in 594.0 W/m2 CLR
15:12 21.0 °F 8.9 °F 1018.2 in NW 29.6 mph 29.6 mph 46 % 0.0 in 594.0 W/m2 CLR
15:17 20.9 °F 8.9 °F 1018.2 in NW 16.7 mph 16.7 mph 46 % 0.0 in 355.0 W/m2 CLR
15:22 21.1 °F 9.0 °F 1018.2 in North 22.5 mph 22.5 mph 46 % 0.0 in 703.0 W/m2 CLR
15:27 21.0 °F 9.3 °F 1018.2 in NW 19.3 mph 19.3 mph 47 % 0.0 in 844.0 W/m2 CLR
15:32 21.1 °F 9.1 °F 1018.2 in NW 20.4 mph 20.4 mph 46 % 0.0 in 882.0 W/m2 CLR
15:37 20.9 °F 9.2 °F 1017.8 in NW 17.7 mph 17.7 mph 47 % 0.0 in 204.0 W/m2 CLR
15:42 21.2 °F 9.1 °F 1017.8 in WNW 24.1 mph 24.1 mph 46 % 0.0 in 793.0 W/m2 CLR
15:47 21.4 °F 9.3 °F 1017.8 in NW 27.4 mph 27.4 mph 46 % 0.0 in 784.0 W/m2 CLR
15:52 21.6 °F 9.1 °F 1017.8 in NW 19.3 mph 19.3 mph 45 % 0.0 in 786.0 W/m2 CLR
15:57 21.7 °F 9.2 °F 1017.8 in NW 24.1 mph 24.1 mph 45 % 0.0 in 779.0 W/m2 CLR
16:02 21.7 °F 8.9 °F 1017.8 in NW 32.2 mph 32.2 mph 44 % 0.0 in 761.0 W/m2 CLR
16:07 21.7 °F 8.9 °F 1017.8 in WNW 25.9 mph 25.9 mph 44 % 0.0 in 747.0 W/m2 CLR
16:12 21.8 °F 9.7 °F 1017.5 in NNW 25.7 mph 25.7 mph 46 % 0.0 in 742.0 W/m2 CLR
16:17 21.8 °F 9.1 °F 1017.8 in NW 22.2 mph 22.2 mph 44 % 0.0 in 761.0 W/m2 CLR
16:22 21.8 °F 9.4 °F 1017.5 in NNW 29.6 mph 29.6 mph 45 % 0.0 in 775.0 W/m2 CLR
16:27 21.9 °F 9.1 °F 1017.5 in NNW 25.9 mph 25.9 mph 44 % 0.0 in 635.0 W/m2 CLR
16:32 21.9 °F 9.1 °F 1017.5 in NW 13.0 mph 13.0 mph 44 % 0.0 in 316.0 W/m2 CLR
16:37 21.5 °F 8.7 °F 1017.5 in NW 31.5 mph 31.5 mph 44 % 0.0 in 322.0 W/m2 CLR
16:42 21.2 °F 8.5 °F 1017.5 in North 24.1 mph 24.1 mph 44 % 0.0 in 320.0 W/m2 CLR
16:47 21.0 °F 8.6 °F 1017.5 in NNW 22.2 mph 22.2 mph 45 % 0.0 in 313.0 W/m2 CLR
16:52 20.9 °F 8.9 °F 1017.5 in NNW 20.9 mph 20.9 mph 46 % 0.0 in 366.0 W/m2 CLR
16:57 21.0 °F 8.9 °F 1017.5 in North 22.5 mph 22.5 mph 46 % 0.0 in 650.0 W/m2 CLR
17:02 21.6 °F 9.4 °F 1017.5 in NNW 42.6 mph 42.6 mph 46 % 0.0 in 708.0 W/m2 CLR
17:07 21.5 °F 8.7 °F 1017.5 in NW 33.3 mph 33.3 mph 44 % 0.0 in 408.0 W/m2 CLR
17:12 21.5 °F 8.7 °F 1017.5 in NNW 31.5 mph 31.5 mph 44 % 0.0 in 585.0 W/m2 CLR
17:17 21.2 °F 8.8 °F 1017.5 in NNW 29.0 mph 29.0 mph 45 % 0.0 in 439.0 W/m2 CLR
17:22 20.8 °F 8.4 °F 1017.5 in NW 31.5 mph 31.5 mph 45 % 0.0 in 239.0 W/m2 CLR
17:27 20.6 °F 8.6 °F 1017.5 in NNW 31.5 mph 31.5 mph 46 % 0.0 in 267.0 W/m2 CLR
17:32 20.7 °F 8.9 °F 1017.5 in NW 25.9 mph 25.9 mph 47 % 0.0 in 343.0 W/m2 CLR
17:37 20.8 °F 8.8 °F 1017.5 in WNW 27.8 mph 27.8 mph 46 % 0.0 in 255.0 W/m2 CLR
17:42 20.6 °F 8.8 °F 1017.5 in WNW 18.5 mph 18.5 mph 47 % 0.0 in 218.0 W/m2 CLR
17:47 20.4 °F 8.7 °F 1017.5 in WNW 22.2 mph 22.2 mph 47 % 0.0 in 255.0 W/m2 CLR
17:52 20.6 °F 8.8 °F 1017.2 in NNW 18.5 mph 18.5 mph 47 % 0.0 in 236.0 W/m2 CLR
17:58 20.6 °F 8.9 °F 1017.2 in NW 20.9 mph 20.9 mph 47 % 0.0 in 329.0 W/m2 CLR
18:03 20.7 °F 8.9 °F 1017.2 in NW 31.5 mph 31.5 mph 47 % 0.0 in 563.0 W/m2 CLR
18:08 20.8 °F 8.8 °F 1017.5 in NNW 33.3 mph 33.3 mph 46 % 0.0 in 554.0 W/m2 CLR
18:13 20.8 °F 8.4 °F 1017.5 in NW 33.3 mph 33.3 mph 45 % 0.0 in 325.0 W/m2 CLR
18:18 20.5 °F 8.5 °F 1017.5 in NNW 25.9 mph 25.9 mph 46 % 0.0 in 202.0 W/m2 CLR
18:23 20.2 °F 8.2 °F 1017.5 in NNW 24.1 mph 24.1 mph 46 % 0.0 in 216.0 W/m2 CLR
18:28 20.4 °F 8.4 °F 1017.5 in NW 22.5 mph 22.5 mph 46 % 0.0 in 397.0 W/m2 CLR
18:33 20.4 °F 8.4 °F 1017.5 in West 12.9 mph 12.9 mph 46 % 0.0 in 86.0 W/m2 CLR
18:38 20.2 °F 8.2 °F 1017.5 in WNW 13.0 mph 13.0 mph 46 % 0.0 in 76.0 W/m2 CLR
18:43 20.0 °F 8.0 °F 1017.5 in WNW 18.5 mph 18.5 mph 46 % 0.0 in 67.0 W/m2 FEW
18:48 19.9 °F 8.2 °F 1017.5 in West 19.3 mph 19.3 mph 47 % 0.0 in 60.0 W/m2 FEW
18:53 19.9 °F 8.2 °F 1017.5 in NW 16.7 mph 16.7 mph 47 % 0.0 in 109.0 W/m2 FEW
18:58 20.2 °F 8.2 °F 1017.8 in WNW 20.4 mph 20.4 mph 46 % 0.0 in 276.0 W/m2 FEW
19:03 20.4 °F 8.4 °F 1017.5 in WNW 20.9 mph 20.9 mph 46 % 0.0 in 251.0 W/m2 CLR
19:08 20.5 °F 8.5 °F 1017.8 in NNW 20.4 mph 20.4 mph 46 % 0.0 in 230.0 W/m2 CLR
19:13 20.5 °F 8.5 °F 1017.8 in NW 16.7 mph 16.7 mph 46 % 0.0 in 221.0 W/m2 CLR
19:18 20.4 °F 8.4 °F 1017.8 in NW 18.5 mph 18.5 mph 46 % 0.0 in 190.0 W/m2 CLR
19:23 20.1 °F 8.1 °F 1017.8 in NW 22.2 mph 22.2 mph 46 % 0.0 in 163.0 W/m2 CLR
19:28 19.9 °F 7.9 °F 1017.8 in NNW 27.8 mph 27.8 mph 46 % 0.0 in 139.0 W/m2 CLR
19:33 19.8 °F 8.1 °F 1017.8 in WNW 22.2 mph 22.2 mph 47 % 0.0 in 88.0 W/m2 CLR
19:38 19.8 °F 8.1 °F 1017.8 in WNW 18.5 mph 18.5 mph 47 % 0.0 in 95.0 W/m2 CLR
19:43 19.6 °F 7.9 °F 1017.5 in WNW 18.5 mph 18.5 mph 47 % 0.0 in 44.0 W/m2 BKN
19:53 19.2 °F 7.9 °F 1017.8 in WNW 20.4 mph 20.4 mph 48 % 0.0 in 67.0 W/m2 FEW
19:58 19.2 °F 7.6 °F 1017.8 in NW 31.5 mph 31.5 mph 47 % 0.0 in 51.0 W/m2 SCT
20:03 19.1 °F 7.5 °F 1017.8 in NW 25.9 mph 25.9 mph 47 % 0.0 in 44.0 W/m2 BKN
20:08 19.0 °F 7.4 °F 1018.2 in NW 33.8 mph 33.8 mph 47 % 0.0 in 35.0 W/m2 BKN
20:13 18.8 °F 7.6 °F 1018.2 in WNW 24.1 mph 24.1 mph 48 % 0.0 in 19.0 W/m2 BKN
20:18 18.6 °F 7.4 °F 1018.2 in WNW 13.0 mph 13.0 mph 48 % 0.0 in 14.0 W/m2 BKN
20:23 18.4 °F 7.5 °F 1018.5 in WNW 22.5 mph 22.5 mph 49 % 0.0 in 12.0 W/m2 BKN
20:28 18.2 °F 7.6 °F 1018.5 in WNW 20.9 mph 20.9 mph 50 % 0.0 in 11.0 W/m2 BKN
20:33 18.2 °F 7.6 °F 1018.5 in WNW 18.5 mph 18.5 mph 50 % 0.0 in 7.0 W/m2 BKN
20:38 18.1 °F 7.4 °F 1018.8 in WNW 24.1 mph 24.1 mph 50 % 0.0 in 0.0 W/m2 OVC
20:43 18.0 °F 7.4 °F 1018.8 in NW 18.5 mph 18.5 mph 50 % 0.0 in 0.0 W/m2 OVC
20:48 17.9 °F 7.6 °F 1018.8 in WNW 14.5 mph 14.5 mph 51 % 0.0 in 0.0 W/m2 OVC
20:53 17.8 °F 7.5 °F 1018.8 in WNW 18.5 mph 18.5 mph 51 % 0.0 in 0.0 W/m2 CLR
20:58 17.7 °F 7.4 °F 1018.8 in WNW 11.3 mph 11.3 mph 51 % 0.0 in 0.0 W/m2 CLR
21:03 17.6 °F 7.3 °F 1019.2 in SW 18.5 mph 18.5 mph 51 % 0.0 in 0.0 W/m2 CLR
21:08 17.5 °F 7.2 °F 1019.2 in NW 27.8 mph 27.8 mph 51 % 0.0 in 0.0 W/m2 CLR
21:13 17.4 °F 6.8 °F 1019.2 in West 27.8 mph 27.8 mph 50 % 0.0 in 0.0 W/m2 CLR
21:18 17.3 °F 6.8 °F 1019.5 in West 27.8 mph 27.8 mph 50 % 0.0 in 0.0 W/m2 CLR
21:23 17.2 °F 6.7 °F 1019.9 in West 24.1 mph 24.1 mph 50 % 0.0 in 0.0 W/m2 CLR
21:28 17.1 °F 6.6 °F 1019.9 in WNW 31.5 mph 31.5 mph 50 % 0.0 in 0.0 W/m2 CLR
21:33 16.9 °F 6.4 °F 1019.9 in WNW 20.4 mph 20.4 mph 50 % 0.0 in 0.0 W/m2 CLR
21:38 16.8 °F 6.6 °F 1019.9 in WNW 20.9 mph 20.9 mph 51 % 0.0 in 0.0 W/m2 CLR
21:43 16.6 °F 6.4 °F 1020.2 in WNW 22.2 mph 22.2 mph 51 % 0.0 in 0.0 W/m2 CLR
21:48 16.4 °F 6.2 °F 1020.2 in WNW 16.7 mph 16.7 mph 51 % 0.0 in 0.0 W/m2 CLR
21:53 16.3 °F 6.4 °F 1020.5 in West 18.5 mph 18.5 mph 52 % 0.0 in 0.0 W/m2 CLR
21:58 16.2 °F 6.3 °F 1020.5 in WNW 16.7 mph 16.7 mph 52 % 0.0 in 0.0 W/m2 CLR
22:03 16.1 °F 6.2 °F 1020.5 in NW 20.4 mph 20.4 mph 52 % 0.0 in 0.0 W/m2 CLR
22:08 16.0 °F 6.4 °F 1020.9 in West 5.6 mph 5.6 mph 53 % 0.0 in 0.0 W/m2 CLR
22:10 16.0 °F 6.4 °F 1020.9 in NW 12.9 mph 12.9 mph 53 % 0.0 in 0.0 W/m2 CLR
22:15 15.9 °F 6.4 °F 1020.9 in WNW 3.7 mph 3.7 mph 53 % 0.0 in 0.0 W/m2 CLR
22:20 15.8 °F 6.3 °F 1020.9 in WNW 14.5 mph 14.5 mph 53 % 0.0 in 0.0 W/m2 CLR
22:25 15.8 °F 6.2 °F 1021.2 in WNW 20.4 mph 20.4 mph 53 % 0.0 in 0.0 W/m2 CLR
22:30 15.7 °F 6.4 °F 1021.2 in NW 20.4 mph 20.4 mph 54 % 0.0 in 0.0 W/m2 CLR
22:35 15.6 °F 6.3 °F 1021.2 in WNW 27.8 mph 27.8 mph 54 % 0.0 in 0.0 W/m2 CLR
22:40 15.6 °F 6.3 °F 1021.2 in NW 31.5 mph 31.5 mph 54 % 0.0 in 0.0 W/m2 CLR
22:45 15.5 °F 6.2 °F 1021.2 in WNW 24.1 mph 24.1 mph 54 % 0.0 in 0.0 W/m2 CLR
22:50 15.3 °F 6.3 °F 1021.2 in WNW 27.8 mph 27.8 mph 55 % 0.0 in 0.0 W/m2 CLR
22:55 15.3 °F 6.3 °F 1021.2 in WNW 27.4 mph 27.4 mph 55 % 0.0 in 0.0 W/m2 CLR
23:00 15.3 °F 6.3 °F 1021.2 in WNW 35.4 mph 35.4 mph 55 % 0.0 in 0.0 W/m2 CLR
23:05 15.3 °F 6.3 °F 1021.2 in West 27.8 mph 27.8 mph 55 % 0.0 in 0.0 W/m2 CLR
23:10 15.2 °F 6.2 °F 1021.6 in NW 33.3 mph 33.3 mph 55 % 0.0 in 0.0 W/m2 CLR
23:15 15.1 °F 6.4 °F 1021.6 in WNW 27.8 mph 27.8 mph 56 % 0.0 in 0.0 W/m2 CLR
23:20 15.0 °F 6.3 °F 1021.9 in NW 24.1 mph 24.1 mph 56 % 0.0 in 0.0 W/m2 CLR
23:25 14.9 °F 6.2 °F 1021.9 in WNW 25.9 mph 25.9 mph 56 % 0.0 in 0.0 W/m2 CLR
23:30 14.8 °F 6.1 °F 1021.9 in NNW 27.8 mph 27.8 mph 56 % 0.0 in 0.0 W/m2 CLR
23:35 14.8 °F 6.1 °F 1021.6 in WNW 24.1 mph 24.1 mph 56 % 0.0 in 0.0 W/m2 CLR
23:40 14.7 °F 6.3 °F 1021.2 in WNW 37.0 mph 37.0 mph 57 % 0.0 in 0.0 W/m2 CLR
23:45 14.8 °F 6.1 °F 1021.2 in WNW 35.4 mph 35.4 mph 56 % 0.0 in 0.0 W/m2 CLR
23:50 14.8 °F 6.1 °F 1021.2 in West 27.8 mph 27.8 mph 56 % 0.0 in 0.0 W/m2 CLR
23:55 14.8 °F 6.1 °F 1021.6 in West 35.2 mph 35.2 mph 56 % 0.0 in 0.0 W/m2 CLR
Lo Temps de Massalio
Compliments of Weather Underground - 1.25 mb